Time;durP1;ratioP1;P1;durP2;ratioP2;P2;SDS_P1;SDS_P2;PMS_P1;PMS_P2;Temp;Humidity;BMP_temperature;BMP_pressure;BME280_temperature;BME280_humidity;BME280_pressure;Samples;Min_cycle;Max_cycle;Signal;HPM_P1;HPM_P2
2023/08/19 00:00:21;;;;;;;16.00;13.60;;;;;;;-128.00;-1.00;-1.00;18450;285;7506336;-35
2023/08/19 00:02:47;;;;;;;14.40;12.80;;;;;;;-128.00;-1.00;-1.00;18478;289;7505335;-35
2023/08/19 00:05:13;;;;;;;23.10;13.50;;;;;;;-128.00;-1.00;-1.00;18875;320;7505463;-32
2023/08/19 00:07:39;;;;;;;16.70;14.70;;;;;;;-128.00;-1.00;-1.00;18892;297;7504805;-34
2023/08/19 00:10:06;;;;;;;22.30;17.20;;;;;;;-128.00;-1.00;-1.00;18900;289;7504615;-32
2023/08/19 00:12:32;;;;;;;17.00;15.20;;;;;;;-128.00;-1.00;-1.00;18473;289;7506171;-35
2023/08/19 00:14:58;;;;;;;15.20;13.70;;;;;;;-128.00;-1.00;-1.00;18452;285;7504877;-35
2023/08/19 00:17:24;;;;;;;12.80;11.60;;;;;;;-128.00;-1.00;-1.00;18872;337;7505679;-34
2023/08/19 00:19:51;;;;;;;10.60;9.60;;;;;;;-128.00;-1.00;-1.00;18444;297;7506066;-32
2023/08/19 00:22:19;;;;;;;12.70;10.50;;;;;;;-128.00;-1.00;-1.00;18443;289;7504763;-36
2023/08/19 00:24:45;;;;;;;12.40;11.30;;;;;;;-128.00;-1.00;-1.00;18459;308;7506802;-36
2023/08/19 00:27:12;;;;;;;34.10;12.00;;;;;;;-128.00;-1.00;-1.00;18877;285;7505516;-33
2023/08/19 00:29:38;;;;;;;9.70;8.80;;;;;;;-128.00;-1.00;-1.00;18442;285;7506969;-35
2023/08/19 00:32:05;;;;;;;28.20;12.40;;;;;;;-128.00;-1.00;-1.00;18470;297;7506083;-32
2023/08/19 00:34:30;;;;;;;19.40;11.30;;;;;;;-128.00;-1.00;-1.00;18478;289;7506378;-32
2023/08/19 00:36:56;;;;;;;50.80;11.20;;;;;;;-128.00;-1.00;-1.00;18867;297;7506218;-35
2023/08/19 01:19:54;;;;;;;102.10;19.20;;;;;;;-99.05;19.20;19911.08;19561;295;8045905;-31
2023/08/19 01:22:38;;;;;;;19.40;17.40;;;;;;;-128.00;-1.00;-1.00;18143;296;7505947;-32
2023/08/19 01:25:05;;;;;;;16.80;15.10;;;;;;;-128.00;-1.00;-1.00;18482;315;7506034;-34
2023/08/19 01:27:30;;;;;;;17.40;13.30;;;;;;;-128.00;-1.00;-1.00;18469;296;7506507;-34
2023/08/19 01:29:56;;;;;;;11.40;10.20;;;;;;;-128.00;-1.00;-1.00;18482;294;7506208;-34
2023/08/19 01:32:22;;;;;;;31.00;13.80;;;;;;;-128.00;-1.00;-1.00;18456;294;7506103;-35
2023/08/19 01:34:47;;;;;;;26.60;14.20;;;;;;;-128.00;-1.00;-1.00;18458;287;7506344;-31
2023/08/19 01:37:21;;;;;;;20.30;12.70;;;;;;;-128.00;-1.00;-1.00;18509;295;7505133;-32
2023/08/19 01:39:47;;;;;;;10.30;9.30;;;;;;;-128.00;-1.00;-1.00;18491;294;7505808;-32
2023/08/19 01:42:13;;;;;;;19.80;10.60;;;;;;;-128.00;-1.00;-1.00;18873;335;7504394;-33
2023/08/19 01:44:40;;;;;;;29.60;13.50;;;;;;;-128.00;-1.00;-1.00;18879;294;7504250;-35
2023/08/19 01:47:16;;;;;;;17.80;15.90;;;;;;;-128.00;-1.00;-1.00;18883;294;7504443;-32
2023/08/19 01:49:43;;;;;;;17.70;15.80;;;;;;;-128.00;-1.00;-1.00;18470;347;7506536;-32
2023/08/19 01:52:10;;;;;;;18.20;15.40;;;;;;;-128.00;-1.00;-1.00;18466;294;7504368;-32
2023/08/19 01:54:36;;;;;;;11.00;9.80;;;;;;;-128.00;-1.00;-1.00;18456;294;7506019;-35
2023/08/19 01:57:02;;;;;;;12.10;9.40;;;;;;;-128.00;-1.00;-1.00;18455;296;7504762;-33
2023/08/19 01:59:28;;;;;;;12.50;11.30;;;;;;;-128.00;-1.00;-1.00;18494;294;7504293;-33
2023/08/19 02:01:53;;;;;;;23.00;12.20;;;;;;;-128.00;-1.00;-1.00;18480;295;7505349;-35
2023/08/19 02:04:19;;;;;;;13.50;12.30;;;;;;;-128.00;-1.00;-1.00;18482;347;7506453;-35
2023/08/19 02:06:45;;;;;;;15.00;13.60;;;;;;;-128.00;-1.00;-1.00;18507;294;7505214;-32
2023/08/19 02:09:11;;;;;;;10.70;9.60;;;;;;;-128.00;-1.00;-1.00;18464;294;7504449;-35
2023/08/19 02:11:38;;;;;;;15.00;10.80;;;;;;;-128.00;-1.00;-1.00;18507;294;7506406;-33
2023/08/19 02:14:04;;;;;;;18.00;6.90;;;;;;;-128.00;-1.00;-1.00;18456;347;7504452;-35
2023/08/19 02:16:30;;;;;;;8.80;8.00;;;;;;;-128.00;-1.00;-1.00;18481;294;7506362;-32
2023/08/19 02:18:58;;;;;;;7.60;6.80;;;;;;;-128.00;-1.00;-1.00;18503;294;7506413;-33
2023/08/19 02:21:23;;;;;;;13.90;12.80;;;;;;;-128.00;-1.00;-1.00;18450;284;7504825;-32
2023/08/19 02:23:49;;;;;;;13.80;12.60;;;;;;;-128.00;-1.00;-1.00;18443;295;7504537;-32
2023/08/19 02:26:15;;;;;;;13.90;12.50;;;;;;;-128.00;-1.00;-1.00;18452;318;7504429;-32
2023/08/19 02:28:41;;;;;;;12.40;11.20;;;;;;;-128.00;-1.00;-1.00;18486;297;7504195;-35
2023/08/19 02:31:06;;;;;;;16.50;14.70;;;;;;;-128.00;-1.00;-1.00;18472;295;7505136;-35
2023/08/19 02:33:32;;;;;;;18.70;15.60;;;;;;;-128.00;-1.00;-1.00;18476;295;7504262;-32
2023/08/19 02:35:58;;;;;;;16.30;12.30;;;;;;;-128.00;-1.00;-1.00;18453;295;7504605;-36
2023/08/19 02:38:23;;;;;;;15.80;14.30;;;;;;;-128.00;-1.00;-1.00;18488;295;7504324;-32
2023/08/19 02:40:50;;;;;;;19.90;16.60;;;;;;;-128.00;-1.00;-1.00;18498;297;7506068;-35
2023/08/19 02:43:16;;;;;;;54.10;15.80;;;;;;;-128.00;-1.00;-1.00;18453;340;7506733;-35
2023/08/19 02:45:42;;;;;;;23.60;16.20;;;;;;;-128.00;-1.00;-1.00;18460;295;7504760;-32
2023/08/19 02:48:08;;;;;;;28.10;12.70;;;;;;;-128.00;-1.00;-1.00;18452;289;7506027;-32
2023/08/19 02:50:34;;;;;;;36.10;17.40;;;;;;;-128.00;-1.00;-1.00;18488;295;7506143;-36
2023/08/19 02:52:59;;;;;;;18.40;16.40;;;;;;;-128.00;-1.00;-1.00;18481;288;7506188;-32
2023/08/19 02:55:25;;;;;;;14.30;12.90;;;;;;;-128.00;-1.00;-1.00;18461;340;7504373;-33
2023/08/19 02:57:51;;;;;;;15.60;14.20;;;;;;;-128.00;-1.00;-1.00;18497;295;7506512;-35
2023/08/19 03:00:16;;;;;;;17.30;14.50;;;;;;;-128.00;-1.00;-1.00;18464;295;7504815;-33
2023/08/19 03:02:46;;;;;;;17.40;14.30;;;;;;;-128.00;-1.00;-1.00;18478;295;7506247;-35
2023/08/19 03:05:12;;;;;;;17.50;15.60;;;;;;;-128.00;-1.00;-1.00;18478;287;7504849;-35
2023/08/19 03:07:38;;;;;;;15.10;13.60;;;;;;;-128.00;-1.00;-1.00;18452;341;7506198;-35
2023/08/19 03:10:05;;;;;;;14.50;13.20;;;;;;;-128.00;-1.00;-1.00;18473;287;7505118;-32
2023/08/19 03:12:31;;;;;;;16.00;12.70;;;;;;;-128.00;-1.00;-1.00;18484;295;7504348;-35
2023/08/19 03:14:56;;;;;;;15.60;14.20;;;;;;;-128.00;-1.00;-1.00;18503;295;7505812;-35
2023/08/19 03:17:22;;;;;;;14.90;13.50;;;;;;;-128.00;-1.00;-1.00;18466;295;7504563;-32
2023/08/19 03:19:49;;;;;;;16.50;14.90;;;;;;;-128.00;-1.00;-1.00;18456;295;7506005;-32
2023/08/19 03:22:15;;;;;;;17.50;15.30;;;;;;;-128.00;-1.00;-1.00;18885;295;7504520;-32
2023/08/19 03:24:41;;;;;;;18.20;16.30;;;;;;;-128.00;-1.00;-1.00;18865;313;7504753;-32
2023/08/19 03:27:07;;;;;;;19.80;17.80;;;;;;;-128.00;-1.00;-1.00;18870;295;7505125;-32
2023/08/19 03:29:33;;;;;;;22.50;18.00;;;;;;;-128.00;-1.00;-1.00;18862;295;7505161;-33
2023/08/19 03:31:59;;;;;;;20.70;18.60;;;;;;;-128.00;-1.00;-1.00;18897;285;7504591;-32
2023/08/19 03:34:26;;;;;;;22.30;18.70;;;;;;;-128.00;-1.00;-1.00;18907;295;7504844;-36
2023/08/19 03:36:52;;;;;;;23.90;20.30;;;;;;;-128.00;-1.00;-1.00;18878;307;7504350;-36
2023/08/19 03:39:18;;;;;;;19.50;17.60;;;;;;;-128.00;-1.00;-1.00;18924;287;7504307;-36
2023/08/19 03:41:45;;;;;;;27.00;17.20;;;;;;;-128.00;-1.00;-1.00;18872;295;7504584;-35
2023/08/19 03:44:11;;;;;;;22.20;18.60;;;;;;;-128.00;-1.00;-1.00;18881;295;7505611;-36
2023/08/19 03:46:38;;;;;;;18.40;14.60;;;;;;;-128.00;-1.00;-1.00;18493;287;7504297;-33
2023/08/19 03:49:04;;;;;;;19.80;17.00;;;;;;;-128.00;-1.00;-1.00;18473;297;7506025;-34
2023/08/19 03:51:30;;;;;;;27.90;16.50;;;;;;;-128.00;-1.00;-1.00;18488;295;7504175;-31
2023/08/19 03:53:56;;;;;;;20.00;16.60;;;;;;;-128.00;-1.00;-1.00;18475;295;7505852;-31
2023/08/19 03:56:22;;;;;;;16.90;15.20;;;;;;;-128.00;-1.00;-1.00;18509;288;7505400;-37
2023/08/19 03:58:47;;;;;;;22.10;16.30;;;;;;;-128.00;-1.00;-1.00;18481;295;7505789;-34
2023/08/19 04:01:13;;;;;;;16.00;14.40;;;;;;;-128.00;-1.00;-1.00;18479;297;7505794;-34
2023/08/19 04:03:39;;;;;;;16.00;14.60;;;;;;;-128.00;-1.00;-1.00;18455;295;7504668;-34
2023/08/19 04:06:04;;;;;;;12.40;11.20;;;;;;;-128.00;-1.00;-1.00;18482;295;7506496;-33
2023/08/19 04:08:30;;;;;;;19.80;13.00;;;;;;;-128.00;-1.00;-1.00;18470;295;7504787;-34
2023/08/19 04:11:08;;;;;;;14.20;12.80;;;;;;;-128.00;-1.00;-1.00;18486;288;7504772;-33
2023/08/19 04:13:34;;;;;;;13.10;11.80;;;;;;;-128.00;-1.00;-1.00;18471;295;7506283;-31
2023/08/19 04:16:03;;;;;;;16.80;14.40;;;;;;;-128.00;-1.00;-1.00;18456;295;7506148;-32
2023/08/19 04:18:30;;;;;;;17.50;14.30;;;;;;;-128.00;-1.00;-1.00;18503;295;7506080;-32
2023/08/19 04:20:56;;;;;;;24.80;17.10;;;;;;;-128.00;-1.00;-1.00;18457;295;7505955;-32
2023/08/19 04:23:22;;;;;;;15.60;14.00;;;;;;;-128.00;-1.00;-1.00;18456;295;7505822;-35
2023/08/19 04:25:48;;;;;;;19.40;14.20;;;;;;;-128.00;-1.00;-1.00;18461;347;7504619;-32
2023/08/19 04:28:14;;;;;;;18.40;16.30;;;;;;;-128.00;-1.00;-1.00;18851;341;7504837;-34
2023/08/19 04:30:41;;;;;;;17.40;15.10;;;;;;;-128.00;-1.00;-1.00;18875;283;7504186;-32
2023/08/19 04:33:07;;;;;;;18.90;16.90;;;;;;;-128.00;-1.00;-1.00;18870;295;7504637;-32
2023/08/19 04:35:33;;;;;;;18.60;16.40;;;;;;;-128.00;-1.00;-1.00;18849;295;7505234;-35
2023/08/19 04:37:59;;;;;;;16.90;15.30;;;;;;;-128.00;-1.00;-1.00;18478;288;7505829;-33
2023/08/19 04:40:25;;;;;;;14.50;12.50;;;;;;;-128.00;-1.00;-1.00;18517;295;7505841;-35
2023/08/19 04:42:51;;;;;;;18.90;16.10;;;;;;;-128.00;-1.00;-1.00;18864;295;7505356;-35
2023/08/19 04:45:17;;;;;;;18.40;16.50;;;;;;;-128.00;-1.00;-1.00;18896;288;7504925;-32
2023/08/19 04:47:43;;;;;;;20.60;17.20;;;;;;;-128.00;-1.00;-1.00;18899;295;7504649;-35
2023/08/19 04:50:10;;;;;;;17.60;15.80;;;;;;;-128.00;-1.00;-1.00;18907;288;7504638;-32
2023/08/19 04:52:37;;;;;;;17.70;15.70;;;;;;;-128.00;-1.00;-1.00;18465;347;7506226;-32
2023/08/19 04:55:07;;;;;;;19.30;16.90;;;;;;;-128.00;-1.00;-1.00;18470;295;7504780;-32
2023/08/19 04:57:32;;;;;;;14.20;12.70;;;;;;;-128.00;-1.00;-1.00;18480;288;7506066;-31
2023/08/19 04:59:58;;;;;;;16.50;14.60;;;;;;;-128.00;-1.00;-1.00;18458;288;7505656;-33
2023/08/19 05:02:24;;;;;;;17.20;15.40;;;;;;;-128.00;-1.00;-1.00;18886;295;7504406;-32
2023/08/19 05:04:51;;;;;;;17.80;16.00;;;;;;;-128.00;-1.00;-1.00;18866;297;7504675;-37
2023/08/19 05:07:17;;;;;;;21.20;16.10;;;;;;;-128.00;-1.00;-1.00;18887;295;7504627;-35
2023/08/19 05:09:43;;;;;;;18.80;16.60;;;;;;;-128.00;-1.00;-1.00;18899;295;7504720;-33
2023/08/19 05:12:09;;;;;;;15.00;13.70;;;;;;;-128.00;-1.00;-1.00;18872;288;7504975;-32
2023/08/19 05:14:36;;;;;;;15.10;13.30;;;;;;;-128.00;-1.00;-1.00;18907;295;7505812;-33
2023/08/19 05:17:02;;;;;;;17.00;14.80;;;;;;;-128.00;-1.00;-1.00;18880;295;7504613;-35
2023/08/19 05:19:28;;;;;;;17.60;14.70;;;;;;;-128.00;-1.00;-1.00;18883;284;7504658;-33
2023/08/19 05:21:55;;;;;;;18.60;14.50;;;;;;;-128.00;-1.00;-1.00;18901;297;7504410;-33
2023/08/19 05:24:21;;;;;;;17.80;15.20;;;;;;;-128.00;-1.00;-1.00;18882;335;7504447;-34
2023/08/19 05:26:47;;;;;;;18.90;15.30;;;;;;;-128.00;-1.00;-1.00;18886;295;7504500;-34
2023/08/19 05:29:15;;;;;;;23.60;15.80;;;;;;;-128.00;-1.00;-1.00;18851;288;7504401;-36
2023/08/19 05:31:42;;;;;;;19.10;16.30;;;;;;;-128.00;-1.00;-1.00;18473;295;7504924;-35
2023/08/19 05:34:08;;;;;;;16.10;14.40;;;;;;;-128.00;-1.00;-1.00;18469;295;7506160;-32
2023/08/19 05:36:34;;;;;;;22.20;14.70;;;;;;;-128.00;-1.00;-1.00;18468;295;7505968;-32
2023/08/19 05:38:59;;;;;;;16.50;14.80;;;;;;;-128.00;-1.00;-1.00;18481;288;7506348;-35
2023/08/19 05:41:26;;;;;;;18.50;16.60;;;;;;;-128.00;-1.00;-1.00;18490;288;7506352;-32
2023/08/19 05:43:51;;;;;;;16.20;13.60;;;;;;;-128.00;-1.00;-1.00;18495;295;7504299;-32
2023/08/19 05:46:18;;;;;;;17.50;15.60;;;;;;;-128.00;-1.00;-1.00;18889;288;7505597;-32
2023/08/19 05:48:44;;;;;;;19.70;17.10;;;;;;;-128.00;-1.00;-1.00;18889;307;7505007;-35
2023/08/19 05:51:10;;;;;;;19.40;17.30;;;;;;;-128.00;-1.00;-1.00;18867;347;7504787;-32
2023/08/19 05:53:38;;;;;;;16.30;14.60;;;;;;;-128.00;-1.00;-1.00;18875;295;7504639;-32
2023/08/19 05:56:03;;;;;;;18.00;14.30;;;;;;;-128.00;-1.00;-1.00;18478;287;7506214;-35
2023/08/19 05:58:29;;;;;;;16.70;15.00;;;;;;;-128.00;-1.00;-1.00;18474;295;7504233;-32
2023/08/19 06:00:59;;;;;;;17.50;15.00;;;;;;;-128.00;-1.00;-1.00;18458;297;7504201;-32
2023/08/19 06:03:24;;;;;;;18.70;13.90;;;;;;;-128.00;-1.00;-1.00;18476;287;7504743;-32
2023/08/19 06:05:50;;;;;;;15.70;14.10;;;;;;;-128.00;-1.00;-1.00;18472;336;7505620;-33
2023/08/19 06:08:16;;;;;;;13.90;12.50;;;;;;;-128.00;-1.00;-1.00;18491;295;7504634;-35
2023/08/19 06:10:44;;;;;;;16.80;14.90;;;;;;;-128.00;-1.00;-1.00;18875;297;7505952;-35
2023/08/19 06:13:10;;;;;;;18.60;14.50;;;;;;;-128.00;-1.00;-1.00;18471;295;7504527;-32
2023/08/19 06:15:36;;;;;;;17.30;15.30;;;;;;;-128.00;-1.00;-1.00;18474;295;7505326;-35
2023/08/19 06:18:02;;;;;;;14.50;13.00;;;;;;;-128.00;-1.00;-1.00;18461;330;7504897;-32
2023/08/19 06:20:27;;;;;;;22.20;13.70;;;;;;;-128.00;-1.00;-1.00;18466;307;7504770;-36
2023/08/19 06:22:53;;;;;;;16.20;13.70;;;;;;;-128.00;-1.00;-1.00;18467;295;7504834;-36
2023/08/19 06:25:19;;;;;;;12.50;11.20;;;;;;;-128.00;-1.00;-1.00;18450;284;7504724;-35
2023/08/19 06:27:45;;;;;;;16.90;15.20;;;;;;;-128.00;-1.00;-1.00;18868;297;7504790;-35
2023/08/19 06:30:12;;;;;;;16.40;14.80;;;;;;;-128.00;-1.00;-1.00;18878;295;7505080;-36
2023/08/19 06:32:38;;;;;;;26.60;17.20;;;;;;;-128.00;-1.00;-1.00;18459;303;7506197;-36
2023/08/19 06:35:05;;;;;;;18.50;13.70;;;;;;;-128.00;-1.00;-1.00;18469;287;7505264;-32
2023/08/19 06:37:31;;;;;;;17.30;14.00;;;;;;;-128.00;-1.00;-1.00;18486;287;7506364;-35
2023/08/19 06:39:58;;;;;;;18.40;13.20;;;;;;;-128.00;-1.00;-1.00;18473;288;7506189;-35
2023/08/19 06:42:24;;;;;;;14.90;13.50;;;;;;;-128.00;-1.00;-1.00;18487;295;7504680;-32
2023/08/19 06:44:49;;;;;;;15.50;13.20;;;;;;;-128.00;-1.00;-1.00;18504;295;7504578;-35
2023/08/19 06:47:20;;;;;;;14.60;12.60;;;;;;;-128.00;-1.00;-1.00;18487;340;7505815;-32
2023/08/19 06:49:47;;;;;;;13.00;11.70;;;;;;;-128.00;-1.00;-1.00;18487;287;7506126;-33
2023/08/19 06:52:13;;;;;;;14.10;10.60;;;;;;;-128.00;-1.00;-1.00;18447;295;7504735;-35
2023/08/19 06:54:39;;;;;;;15.70;13.80;;;;;;;-128.00;-1.00;-1.00;18472;295;7504135;-35
2023/08/19 06:57:09;;;;;;;14.20;12.40;;;;;;;-128.00;-1.00;-1.00;18495;287;7506320;-35
2023/08/19 06:59:37;;;;;;;6.80;6.20;;;;;;;-128.00;-1.00;-1.00;18461;288;7506103;-33
2023/08/19 07:02:03;;;;;;;15.00;11.90;;;;;;;-128.00;-1.00;-1.00;18437;299;7506215;-36
2023/08/19 07:04:29;;;;;;;12.00;8.50;;;;;;;-128.00;-1.00;-1.00;18471;295;7507296;-32
2023/08/19 07:06:57;;;;;;;12.90;10.80;;;;;;;-128.00;-1.00;-1.00;18507;295;7504108;-33
2023/08/19 07:09:23;;;;;;;12.00;10.10;;;;;;;-128.00;-1.00;-1.00;18490;288;7504477;-36
2023/08/19 07:11:51;;;;;;;11.30;10.10;;;;;;;-128.00;-1.00;-1.00;18472;299;7505984;-36
2023/08/19 07:14:17;;;;;;;13.00;9.80;;;;;;;-128.00;-1.00;-1.00;18487;288;7506327;-33
2023/08/19 07:16:43;;;;;;;23.40;10.00;;;;;;;-128.00;-1.00;-1.00;18492;288;7505041;-32
2023/08/19 07:19:11;;;;;;;10.60;9.60;;;;;;;-128.00;-1.00;-1.00;18470;295;7505848;-36
2023/08/19 07:21:37;;;;;;;10.60;9.20;;;;;;;-128.00;-1.00;-1.00;18465;295;7507091;-36
2023/08/19 07:24:03;;;;;;;12.00;10.90;;;;;;;-128.00;-1.00;-1.00;18499;288;7505816;-36
2023/08/19 07:26:29;;;;;;;12.20;10.40;;;;;;;-128.00;-1.00;-1.00;18464;319;7504769;-35
2023/08/19 07:28:55;;;;;;;12.30;9.60;;;;;;;-128.00;-1.00;-1.00;18470;288;7506086;-32
2023/08/19 07:31:22;;;;;;;28.70;10.90;;;;;;;-128.00;-1.00;-1.00;18481;295;7505733;-33
2023/08/19 07:33:49;;;;;;;10.60;9.70;;;;;;;-128.00;-1.00;-1.00;18448;295;7505763;-36
2023/08/19 07:36:17;;;;;;;11.10;10.00;;;;;;;-128.00;-1.00;-1.00;18473;288;7504566;-32
2023/08/19 07:38:42;;;;;;;25.20;11.00;;;;;;;-128.00;-1.00;-1.00;18457;335;7504692;-32
2023/08/19 07:41:08;;;;;;;11.60;9.70;;;;;;;-128.00;-1.00;-1.00;18460;295;7504383;-36
2023/08/19 07:43:34;;;;;;;9.10;8.30;;;;;;;-128.00;-1.00;-1.00;18454;318;7506039;-32
2023/08/19 07:45:59;;;;;;;8.60;7.80;;;;;;;-128.00;-1.00;-1.00;18498;295;7505796;-36
2023/08/19 07:48:26;;;;;;;10.20;9.10;;;;;;;-128.00;-1.00;-1.00;18883;307;7505290;-32
2023/08/19 07:50:52;;;;;;;9.20;8.50;;;;;;;-128.00;-1.00;-1.00;18865;295;7505628;-33
2023/08/19 07:53:18;;;;;;;11.70;9.30;;;;;;;-128.00;-1.00;-1.00;18872;318;7504670;-33
2023/08/19 07:55:44;;;;;;;9.20;8.30;;;;;;;-128.00;-1.00;-1.00;18881;331;7504717;-32
2023/08/19 07:58:10;;;;;;;11.10;10.10;;;;;;;-128.00;-1.00;-1.00;18886;295;7505276;-33
2023/08/19 08:00:37;;;;;;;11.10;8.30;;;;;;;-128.00;-1.00;-1.00;18911;295;7504656;-35
2023/08/19 08:03:04;;;;;;;11.40;9.30;;;;;;;-128.00;-1.00;-1.00;18877;295;7505044;-36
2023/08/19 08:05:29;;;;;;;8.20;7.40;;;;;;;-128.00;-1.00;-1.00;18460;299;7504210;-32
2023/08/19 08:07:55;;;;;;;8.90;7.10;;;;;;;-128.00;-1.00;-1.00;18464;295;7506200;-32
2023/08/19 08:10:21;;;;;;;7.00;6.40;;;;;;;-128.00;-1.00;-1.00;18508;288;7505142;-32
2023/08/19 08:12:47;;;;;;;10.80;8.00;;;;;;;-128.00;-1.00;-1.00;18868;295;7504280;-32
2023/08/19 08:15:13;;;;;;;9.40;8.20;;;;;;;-128.00;-1.00;-1.00;18884;295;7504949;-35
2023/08/19 08:17:40;;;;;;;8.90;8.00;;;;;;;-128.00;-1.00;-1.00;18465;302;7506296;-33
2023/08/19 08:20:07;;;;;;;8.30;7.50;;;;;;;-128.00;-1.00;-1.00;18466;295;7506176;-36
2023/08/19 08:22:35;;;;;;;14.30;5.30;;;;;;;-128.00;-1.00;-1.00;18454;295;7504989;-33
2023/08/19 08:25:01;;;;;;;5.90;5.40;;;;;;;-128.00;-1.00;-1.00;18452;295;7504703;-36
2023/08/19 08:27:27;;;;;;;5.60;5.20;;;;;;;-128.00;-1.00;-1.00;18473;296;7505082;-36
2023/08/19 08:29:53;;;;;;;6.50;5.80;;;;;;;-128.00;-1.00;-1.00;18875;297;7508985;-32
2023/08/19 08:32:19;;;;;;;10.60;7.20;;;;;;;-128.00;-1.00;-1.00;18879;295;7504616;-36
2023/08/19 08:34:46;;;;;;;10.70;7.30;;;;;;;-128.00;-1.00;-1.00;18893;287;7504704;-36
2023/08/19 08:37:12;;;;;;;5.30;4.90;;;;;;;-128.00;-1.00;-1.00;18471;295;7504928;-33
2023/08/19 08:39:38;;;;;;;18.20;5.90;;;;;;;-128.00;-1.00;-1.00;18497;299;7504592;-33
2023/08/19 08:42:04;;;;;;;5.90;5.40;;;;;;;-128.00;-1.00;-1.00;18478;295;7506913;-32
2023/08/19 08:44:29;;;;;;;6.90;6.30;;;;;;;-128.00;-1.00;-1.00;18475;347;7505078;-32
2023/08/19 08:46:56;;;;;;;7.80;7.20;;;;;;;-128.00;-1.00;-1.00;18855;311;7504888;-31
2023/08/19 08:49:24;;;;;;;9.30;6.50;;;;;;;-128.00;-1.00;-1.00;18878;296;7504730;-38
2023/08/19 08:51:50;;;;;;;5.10;4.60;;;;;;;-128.00;-1.00;-1.00;18448;295;7505374;-32
2023/08/19 08:54:15;;;;;;;6.10;4.60;;;;;;;-128.00;-1.00;-1.00;18461;347;7506822;-32
2023/08/19 08:56:41;;;;;;;10.10;6.80;;;;;;;-128.00;-1.00;-1.00;18471;318;7504887;-35
2023/08/19 08:59:07;;;;;;;5.20;4.60;;;;;;;-128.00;-1.00;-1.00;18872;295;7504400;-33
2023/08/19 09:01:34;;;;;;;5.80;5.20;;;;;;;-128.00;-1.00;-1.00;18890;288;7504778;-36
2023/08/19 09:04:05;;;;;;;6.80;5.80;;;;;;;-128.00;-1.00;-1.00;18889;284;7504362;-33
2023/08/19 09:06:31;;;;;;;5.90;5.30;;;;;;;-128.00;-1.00;-1.00;18479;347;7505341;-33
2023/08/19 09:09:02;;;;;;;6.00;5.40;;;;;;;-128.00;-1.00;-1.00;18862;295;7504832;-37
2023/08/19 09:11:28;;;;;;;;;;;;;;;-128.00;-1.00;-1.00;18506;295;7504864;-36
2023/08/19 09:14:00;;;;;;;5.30;5.00;;;;;;;-128.00;-1.00;-1.00;18476;339;7504241;-32
2023/08/19 09:16:26;;;;;;;5.00;4.70;;;;;;;-128.00;-1.00;-1.00;18461;295;7504947;-33
2023/08/19 09:18:51;;;;;;;3.80;3.50;;;;;;;-128.00;-1.00;-1.00;18479;307;7504736;-33
2023/08/19 09:21:17;;;;;;;7.00;5.50;;;;;;;-128.00;-1.00;-1.00;18474;340;7504647;-33
2023/08/19 09:23:43;;;;;;;4.90;4.50;;;;;;;-128.00;-1.00;-1.00;18405;295;7504602;-36
2023/08/19 09:26:10;;;;;;;5.40;4.30;;;;;;;-128.00;-1.00;-1.00;18866;323;7504287;-32
2023/08/19 09:28:36;;;;;;;7.80;4.10;;;;;;;-128.00;-1.00;-1.00;18463;288;7504384;-36
2023/08/19 09:31:16;;;;;;;4.70;4.30;;;;;;;-128.00;-1.00;-1.00;18468;295;7506797;-33
2023/08/19 09:33:42;;;;;;;4.50;3.40;;;;;;;-128.00;-1.00;-1.00;18477;295;7505030;-32
2023/08/19 09:36:08;;;;;;;3.70;3.50;;;;;;;-128.00;-1.00;-1.00;18463;297;7505273;-36
2023/08/19 09:38:34;;;;;;;3.40;3.10;;;;;;;-128.00;-1.00;-1.00;18477;295;7505009;-33
2023/08/19 09:41:06;;;;;;;5.00;4.50;;;;;;;-128.00;-1.00;-1.00;18886;287;7505260;-32
2023/08/19 09:43:33;;;;;;;4.10;3.70;;;;;;;-128.00;-1.00;-1.00;18476;295;7504889;-32
2023/08/19 09:45:59;;;;;;;4.50;4.10;;;;;;;-128.00;-1.00;-1.00;18473;295;7504213;-32
2023/08/19 09:48:25;;;;;;;3.50;3.20;;;;;;;-128.00;-1.00;-1.00;18477;335;7506026;-32
2023/08/19 09:50:51;;;;;;;7.70;4.70;;;;;;;-128.00;-1.00;-1.00;18477;288;7506011;-32
2023/08/19 09:53:17;;;;;;;5.00;4.60;;;;;;;-128.00;-1.00;-1.00;18472;288;7504993;-36
2023/08/19 09:55:47;;;;;;;5.50;4.20;;;;;;;-128.00;-1.00;-1.00;18464;295;7505283;-36
2023/08/19 09:58:13;;;;;;;4.10;3.60;;;;;;;-128.00;-1.00;-1.00;18479;295;7506323;-32
2023/08/19 10:00:39;;;;;;;6.10;3.60;;;;;;;-128.00;-1.00;-1.00;18463;319;7504689;-33
2023/08/19 10:03:06;;;;;;;15.60;4.30;;;;;;;-128.00;-1.00;-1.00;18471;295;7504795;-35
2023/08/19 10:05:34;;;;;;;4.40;4.00;;;;;;;-128.00;-1.00;-1.00;18459;312;7504593;-33
2023/08/19 10:08:03;;;;;;;5.30;4.20;;;;;;;-128.00;-1.00;-1.00;18486;295;7504537;-33
2023/08/19 10:10:30;;;;;;;5.30;3.80;;;;;;;-128.00;-1.00;-1.00;18473;318;7506964;-36
2023/08/19 10:12:56;;;;;;;4.30;3.90;;;;;;;-128.00;-1.00;-1.00;18479;311;7506397;-35
2023/08/19 10:15:22;;;;;;;4.50;4.20;;;;;;;-128.00;-1.00;-1.00;18474;295;7504702;-36
2023/08/19 10:17:50;;;;;;;4.40;4.00;;;;;;;-128.00;-1.00;-1.00;18474;295;7504918;-35
2023/08/19 10:20:17;;;;;;;4.60;4.20;;;;;;;-128.00;-1.00;-1.00;18480;340;7504782;-35
2023/08/19 10:22:46;;;;;;;4.60;4.20;;;;;;;-128.00;-1.00;-1.00;18499;295;7504898;-36
2023/08/19 10:25:12;;;;;;;9.60;3.90;;;;;;;-128.00;-1.00;-1.00;18456;295;7506157;-33
2023/08/19 10:27:37;;;;;;;6.50;4.10;;;;;;;-128.00;-1.00;-1.00;18469;295;7504403;-36
2023/08/19 10:30:33;;;;;;;4.30;3.90;;;;;;;-128.00;-1.00;-1.00;18480;287;7505985;-32
2023/08/19 10:33:04;;;;;;;7.00;3.30;;;;;;;-128.00;-1.00;-1.00;18462;347;7504290;-36
2023/08/19 10:36:02;;;;;;;4.40;4.00;;;;;;;-128.00;-1.00;-1.00;18447;297;7504900;-36
2023/08/19 10:38:44;;;;;;;4.10;3.80;;;;;;;-128.00;-1.00;-1.00;18466;288;7505847;-36
2023/08/19 10:41:18;;;;;;;4.70;4.20;;;;;;;-128.00;-1.00;-1.00;18471;297;7504764;-33
2023/08/19 10:43:57;;;;;;;9.00;4.30;;;;;;;-128.00;-1.00;-1.00;18504;295;7505998;-32
2023/08/19 10:46:36;;;;;;;7.00;4.90;;;;;;;-128.00;-1.00;-1.00;18455;347;7504613;-33
2023/08/19 10:49:03;;;;;;;6.50;4.20;;;;;;;-128.00;-1.00;-1.00;18471;297;7506822;-36
2023/08/19 10:51:48;;;;;;;6.40;5.80;;;;;;;-128.00;-1.00;-1.00;18453;295;7506133;-32
2023/08/19 10:54:14;;;;;;;5.00;4.50;;;;;;;-128.00;-1.00;-1.00;18466;295;7506120;-36
2023/08/19 10:56:50;;;;;;;6.10;5.60;;;;;;;-128.00;-1.00;-1.00;18472;297;7504924;-36
2023/08/19 10:59:16;;;;;;;5.40;4.70;;;;;;;-128.00;-1.00;-1.00;18465;295;7504951;-35
2023/08/19 11:01:42;;;;;;;10.40;6.40;;;;;;;-128.00;-1.00;-1.00;18469;295;7504905;-36
2023/08/19 11:04:07;;;;;;;6.40;5.40;;;;;;;-128.00;-1.00;-1.00;18475;295;7504531;-33
2023/08/19 11:06:33;;;;;;;6.40;4.70;;;;;;;-128.00;-1.00;-1.00;18466;347;7504789;-36
2023/08/19 11:08:59;;;;;;;4.90;4.40;;;;;;;-128.00;-1.00;-1.00;18480;340;7504860;-36
2023/08/19 11:11:25;;;;;;;3.70;3.40;;;;;;;-128.00;-1.00;-1.00;18485;288;7504127;-36
2023/08/19 11:13:55;;;;;;;5.10;4.60;;;;;;;-128.00;-1.00;-1.00;18470;288;7504233;-36
2023/08/19 11:16:25;;;;;;;4.50;4.10;;;;;;;-128.00;-1.00;-1.00;18473;295;7504548;-36
2023/08/19 11:18:53;;;;;;;5.80;5.40;;;;;;;-128.00;-1.00;-1.00;18498;287;7504269;-32
2023/08/19 11:21:19;;;;;;;7.60;4.90;;;;;;;-128.00;-1.00;-1.00;18465;295;7504456;-36
2023/08/19 11:23:44;;;;;;;5.00;4.30;;;;;;;-128.00;-1.00;-1.00;18485;287;7505114;-36
2023/08/19 11:26:10;;;;;;;4.90;4.20;;;;;;;-128.00;-1.00;-1.00;18865;288;7505725;-36
2023/08/19 11:28:37;;;;;;;4.90;4.50;;;;;;;-128.00;-1.00;-1.00;18851;340;7505530;-32
2023/08/19 11:31:03;;;;;;;6.40;5.90;;;;;;;-128.00;-1.00;-1.00;18872;295;7504409;-33
2023/08/19 11:33:32;;;;;;;5.40;4.90;;;;;;;-128.00;-1.00;-1.00;18845;340;7504334;-32
2023/08/19 11:35:58;;;;;;;6.60;6.00;;;;;;;-128.00;-1.00;-1.00;18488;295;7505901;-35
2023/08/19 11:38:24;;;;;;;6.80;5.60;;;;;;;-128.00;-1.00;-1.00;18470;295;7506312;-32
2023/08/19 11:40:50;;;;;;;5.70;5.20;;;;;;;-128.00;-1.00;-1.00;18862;288;7505158;-32
2023/08/19 11:43:21;;;;;;;7.00;6.40;;;;;;;-128.00;-1.00;-1.00;18455;336;7504240;-32
2023/08/19 11:45:46;;;;;;;6.10;5.50;;;;;;;-128.00;-1.00;-1.00;18491;295;7507341;-33
2023/08/19 11:48:16;;;;;;;7.70;7.00;;;;;;;-128.00;-1.00;-1.00;18897;295;7504745;-36
2023/08/19 11:50:49;;;;;;;7.10;6.50;;;;;;;-128.00;-1.00;-1.00;18510;319;7504527;-36
2023/08/19 11:53:28;;;;;;;5.90;5.40;;;;;;;-128.00;-1.00;-1.00;18458;295;7504137;-32
2023/08/19 11:55:57;;;;;;;6.90;6.40;;;;;;;-128.00;-1.00;-1.00;18461;295;7505893;-35
2023/08/19 11:58:27;;;;;;;7.40;6.80;;;;;;;-128.00;-1.00;-1.00;18505;295;7505065;-32
2023/08/19 12:00:54;;;;;;;5.00;4.70;;;;;;;-128.00;-1.00;-1.00;18458;295;7505341;-36
2023/08/19 12:03:21;;;;;;;4.80;4.40;;;;;;;-128.00;-1.00;-1.00;18478;295;7505935;-36